Time;durP1;ratioP1;P1;durP2;ratioP2;P2;SDS_P1;SDS_P2;PMS_P1;PMS_P2;Temp;Humidity;BMP_temperature;BMP_pressure;BME280_temperature;BME280_humidity;BME280_pressure;Samples;Min_cycle;Max_cycle;Signal;HPM_P1;HPM_P2
2021/08/31 00:01:34;;;;;;;34.42;24.98;;;14.90;99.90;;;;;;5054433;28;20053;-70
2021/08/31 00:04:00;;;;;;;41.63;26.55;;;14.90;99.90;;;;;;5053743;28;20075;-70
2021/08/31 00:06:25;;;;;;;39.60;26.63;;;14.90;99.90;;;;;;5053738;28;20029;-70
2021/08/31 00:08:51;;;;;;;37.15;27.10;;;14.90;99.90;;;;;;5054008;28;20108;-69
2021/08/31 00:11:17;;;;;;;39.05;28.67;;;14.90;99.90;;;;;;5052802;28;20123;-71
2021/08/31 00:13:42;;;;;;;41.80;29.13;;;14.90;99.90;;;;;;5054179;28;20071;-69
2021/08/31 00:16:08;;;;;;;39.90;29.40;;;14.90;99.90;;;;;;5054165;28;20409;-69
2021/08/31 00:18:33;;;;;;;45.00;29.83;;;14.90;99.90;;;;;;5054151;28;20021;-70
2021/08/31 00:20:59;;;;;;;39.65;29.55;;;14.90;99.90;;;;;;5054109;28;20104;-69
2021/08/31 00:23:24;;;;;;;41.38;29.63;;;14.90;99.90;;;;;;5054130;28;20348;-69
2021/08/31 00:25:52;;;;;;;47.53;31.92;;;14.90;99.90;;;;;;5054072;28;20025;-69
2021/08/31 00:28:19;;;;;;;41.38;30.77;;;14.90;99.90;;;;;;5053449;28;20103;-70
2021/08/31 00:30:45;;;;;;;41.42;31.85;;;14.90;99.90;;;;;;5053852;28;20055;-69
2021/08/31 00:33:10;;;;;;;46.80;31.75;;;14.80;99.90;;;;;;5053683;28;20405;-70
2021/08/31 00:35:36;;;;;;;48.47;31.70;;;14.90;99.90;;;;;;5053891;28;20104;-70
2021/08/31 00:38:02;;;;;;;48.05;33.08;;;14.90;99.90;;;;;;5053934;28;20447;-70
2021/08/31 00:40:27;;;;;;;42.95;32.63;;;14.90;99.90;;;;;;5053887;28;20474;-70
2021/08/31 00:42:53;;;;;;;44.45;30.92;;;14.90;99.90;;;;;;5053874;28;20576;-70
2021/08/31 00:45:18;;;;;;;45.15;32.28;;;14.90;99.90;;;;;;5053568;28;20104;-69
2021/08/31 00:47:44;;;;;;;51.13;32.75;;;14.90;99.90;;;;;;5052019;28;20025;-70
2021/08/31 00:50:11;;;;;;;48.67;34.10;;;14.90;99.90;;;;;;5051979;28;20032;-69
2021/08/31 00:52:39;;;;;;;45.97;33.20;;;14.90;99.90;;;;;;5053239;28;20021;-70
2021/08/31 00:55:07;;;;;;;49.90;33.30;;;14.80;99.90;;;;;;5053703;28;20505;-70
2021/08/31 00:57:33;;;;;;;51.53;34.92;;;14.90;99.90;;;;;;5053481;28;20029;-70
2021/08/31 00:59:58;;;;;;;46.83;33.30;;;14.90;99.90;;;;;;5053711;28;20478;-70
2021/08/31 01:02:25;;;;;;;51.28;35.40;;;14.80;99.90;;;;;;5053717;28;20440;-70
2021/08/31 01:04:50;;;;;;;48.55;34.88;;;14.90;99.90;;;;;;5053101;28;20032;-69
2021/08/31 01:07:16;;;;;;;49.08;36.05;;;14.80;99.90;;;;;;5053345;28;20028;-70
2021/08/31 01:09:42;;;;;;;53.55;36.05;;;14.80;99.90;;;;;;5053600;28;20059;-70
2021/08/31 01:12:08;;;;;;;51.42;36.58;;;14.80;99.90;;;;;;5053349;28;20036;-69
2021/08/31 01:14:34;;;;;;;50.08;35.35;;;14.80;99.90;;;;;;5053501;28;20402;-70
2021/08/31 01:16:59;;;;;;;52.60;36.35;;;14.80;99.90;;;;;;5052102;28;20021;-69
2021/08/31 01:19:31;;;;;;;51.88;35.78;;;14.80;99.90;;;;;;5053298;28;20055;-69
2021/08/31 01:21:59;;;;;;;50.25;35.97;;;14.80;99.90;;;;;;5052996;28;20024;-69
2021/08/31 01:24:25;;;;;;;52.50;37.13;;;14.90;99.90;;;;;;5053248;28;20025;-69
2021/08/31 01:26:52;;;;;;;54.50;36.85;;;14.80;99.90;;;;;;5053203;28;20029;-70
2021/08/31 01:29:18;;;;;;;58.42;38.20;;;14.80;99.90;;;;;;5053180;28;20045;-69
2021/08/31 01:31:43;;;;;;;57.75;37.75;;;14.80;99.90;;;;;;5053436;28;20017;-69
2021/08/31 01:34:09;;;;;;;52.60;37.50;;;14.90;99.90;;;;;;5052946;28;20084;-69
2021/08/31 01:36:36;;;;;;;52.78;37.65;;;14.80;99.90;;;;;;5053408;28;20021;-69
2021/08/31 01:39:05;;;;;;;54.25;37.63;;;14.80;99.90;;;;;;5053335;28;20017;-70
2021/08/31 01:41:31;;;;;;;57.38;38.72;;;14.80;99.90;;;;;;5054012;28;20446;-70
2021/08/31 01:43:57;;;;;;;61.17;40.47;;;14.80;99.90;;;;;;5056993;28;20045;-70
2021/08/31 01:46:22;;;;;;;58.30;39.70;;;14.70;99.90;;;;;;5056889;28;20067;-69
2021/08/31 01:48:48;;;;;;;57.58;39.53;;;14.70;99.90;;;;;;5056618;28;20063;-69
2021/08/31 01:51:14;;;;;;;61.58;40.50;;;14.60;99.90;;;;;;5056570;28;20075;-69
2021/08/31 01:53:40;;;;;;;64.07;40.72;;;14.60;99.90;;;;;;5056721;28;20433;-69
2021/08/31 01:56:05;;;;;;;65.53;43.35;;;14.50;99.90;;;;;;5054965;28;20096;-69
2021/08/31 01:58:31;;;;;;;61.75;41.65;;;14.40;99.90;;;;;;5056677;28;20021;-69
2021/08/31 02:00:57;;;;;;;67.57;43.42;;;14.40;99.90;;;;;;5054855;28;20536;-70
2021/08/31 02:03:22;;;;;;;64.97;41.42;;;14.30;99.90;;;;;;5056306;28;20029;-70
2021/08/31 02:05:48;;;;;;;66.28;42.85;;;14.30;99.90;;;;;;5056563;28;20028;-69
2021/08/31 02:08:14;;;;;;;73.50;44.35;;;14.30;99.90;;;;;;5056240;28;20063;-69
2021/08/31 02:10:41;;;;;;;67.82;45.55;;;14.30;99.90;;;;;;5056181;28;20029;-69
2021/08/31 02:13:06;;;;;;;78.53;46.22;;;14.20;99.90;;;;;;5056161;28;20036;-69
2021/08/31 02:15:32;;;;;;;78.20;47.67;;;14.20;99.90;;;;;;5056291;28;20021;-70
2021/08/31 02:17:57;;;;;;;82.13;48.40;;;14.20;99.90;;;;;;5054907;28;20025;-69
2021/08/31 02:20:23;;;;;;;74.10;46.17;;;14.20;99.90;;;;;;5056304;28;20462;-70
2021/08/31 02:22:49;;;;;;;78.22;47.25;;;14.10;99.90;;;;;;5055942;28;20032;-69
2021/08/31 02:25:14;;;;;;;67.93;42.90;;;14.10;99.90;;;;;;5054428;28;20032;-69
2021/08/31 02:27:40;;;;;;;80.88;48.22;;;14.10;99.90;;;;;;5056153;28;20024;-69
2021/08/31 02:30:06;;;;;;;80.10;47.92;;;14.20;99.90;;;;;;5055816;28;20458;-69
2021/08/31 02:32:33;;;;;;;76.47;48.05;;;14.20;99.90;;;;;;5056085;28;20031;-69
2021/08/31 02:34:59;;;;;;;82.28;46.22;;;14.20;99.90;;;;;;5055246;28;20041;-69
2021/08/31 02:37:24;;;;;;;74.38;46.88;;;14.20;99.90;;;;;;5055404;28;20025;-70
2021/08/31 02:39:50;;;;;;;73.40;46.17;;;14.20;99.90;;;;;;5055901;28;20021;-70
2021/08/31 02:42:16;;;;;;;79.93;44.72;;;14.30;99.90;;;;;;5055325;28;20032;-70
2021/08/31 02:44:41;;;;;;;78.38;45.17;;;14.30;99.90;;;;;;5055812;28;20040;-69
2021/08/31 02:47:07;;;;;;;66.32;43.72;;;14.30;99.90;;;;;;5055526;28;20025;-70
2021/08/31 02:49:32;;;;;;;74.43;44.97;;;14.30;99.90;;;;;;5055461;28;20036;-70
2021/08/31 02:51:58;;;;;;;73.65;44.42;;;14.20;99.90;;;;;;5055682;28;20029;-70
2021/08/31 02:54:24;;;;;;;74.03;45.78;;;14.20;99.90;;;;;;5055575;28;20029;-70
2021/08/31 02:56:49;;;;;;;76.68;46.63;;;14.20;99.90;;;;;;5054342;28;20041;-70
2021/08/31 02:59:15;;;;;;;80.97;48.63;;;14.20;99.90;;;;;;5055332;28;20516;-69
2021/08/31 03:02:11;;;;;;;78.70;46.88;;;14.20;99.90;;;;;;5054361;28;20374;-69
2021/08/31 03:04:26;;;;;;;80.45;47.58;;;14.10;99.90;;;;;;5054769;28;20021;-69
2021/08/31 03:06:52;;;;;;;80.28;47.88;;;14.10;99.90;;;;;;5054872;28;20112;-70
2021/08/31 03:09:18;;;;;;;82.38;49.17;;;14.10;99.90;;;;;;5055119;28;20060;-70
2021/08/31 03:11:44;;;;;;;78.88;46.13;;;14.10;99.90;;;;;;5055365;28;20486;-70
2021/08/31 03:14:10;;;;;;;83.43;48.25;;;14.10;99.90;;;;;;5055176;28;20025;-70
2021/08/31 03:16:35;;;;;;;93.22;50.33;;;14.10;99.90;;;;;;5053441;28;20055;-71
2021/08/31 03:19:01;;;;;;;81.13;48.75;;;14.10;99.90;;;;;;5055171;28;20030;-69
2021/08/31 03:21:27;;;;;;;83.28;46.47;;;14.10;99.90;;;;;;5055110;28;20021;-69
2021/08/31 03:23:52;;;;;;;77.95;45.40;;;14.10;99.90;;;;;;5055085;28;20025;-69
2021/08/31 03:26:18;;;;;;;82.47;47.15;;;14.10;99.90;;;;;;5055048;28;20033;-69
2021/08/31 03:28:43;;;;;;;83.30;48.45;;;14.10;99.90;;;;;;5054466;28;20107;-69
2021/08/31 03:31:09;;;;;;;83.63;48.05;;;14.10;99.90;;;;;;5054943;28;20060;-69
2021/08/31 03:33:35;;;;;;;79.68;47.42;;;14.10;99.90;;;;;;5054644;28;20118;-69
2021/08/31 03:36:00;;;;;;;81.88;46.63;;;14.20;99.90;;;;;;5054800;28;20470;-69
2021/08/31 03:38:26;;;;;;;75.45;45.42;;;14.10;99.90;;;;;;5053022;28;20356;-69
2021/08/31 03:40:51;;;;;;;78.97;47.70;;;14.10;99.90;;;;;;5052960;28;20025;-69
2021/08/31 03:43:17;;;;;;;81.40;47.22;;;14.20;99.90;;;;;;5054184;28;20025;-70
2021/08/31 03:45:43;;;;;;;71.32;44.97;;;14.20;99.90;;;;;;5054678;28;20445;-69
2021/08/31 03:48:08;;;;;;;68.38;41.67;;;14.10;99.90;;;;;;5054392;28;20386;-69
2021/08/31 03:50:34;;;;;;;77.82;45.80;;;14.20;99.90;;;;;;5054600;28;20467;-69
2021/08/31 03:52:59;;;;;;;77.18;45.50;;;14.10;99.90;;;;;;5054550;28;20352;-70
2021/08/31 03:55:25;;;;;;;74.05;46.42;;;14.10;99.90;;;;;;5054175;28;20433;-69
2021/08/31 03:57:50;;;;;;;81.78;44.67;;;14.00;99.90;;;;;;5054467;28;20025;-70
2021/08/31 04:00:16;;;;;;;88.03;46.35;;;14.00;99.90;;;;;;5054147;28;20025;-69
2021/08/31 04:02:42;;;;;;;85.60;47.95;;;13.90;99.90;;;;;;5053810;28;20025;-69
2021/08/31 04:05:08;;;;;;;73.03;43.70;;;13.90;99.90;;;;;;5052506;28;20111;-69
2021/08/31 04:07:34;;;;;;;88.97;47.33;;;13.80;99.90;;;;;;5054020;28;20029;-69
2021/08/31 04:09:59;;;;;;;81.50;45.78;;;13.80;99.90;;;;;;5054238;28;20024;-69
2021/08/31 04:12:25;;;;;;;77.80;44.00;;;13.70;99.90;;;;;;5054205;28;20056;-69
2021/08/31 04:14:50;;;;;;;78.85;44.08;;;13.60;99.90;;;;;;5054118;28;20458;-69
2021/08/31 04:17:16;;;;;;;81.20;46.72;;;13.60;99.90;;;;;;5054169;28;20025;-69
2021/08/31 04:19:42;;;;;;;90.50;49.78;;;13.50;99.90;;;;;;5054132;28;20025;-69
2021/08/31 04:22:09;;;;;;;91.13;47.97;;;13.60;99.90;;;;;;5054089;28;20013;-69
2021/08/31 04:24:35;;;;;;;114.22;55.60;;;13.60;99.90;;;;;;5052930;28;20104;-69
2021/08/31 04:27:01;;;;;;;107.13;54.88;;;13.60;99.90;;;;;;5053766;28;20040;-69
2021/08/31 04:29:27;;;;;;;117.65;55.58;;;13.60;99.90;;;;;;5052500;28;20025;-69
2021/08/31 04:31:52;;;;;;;111.75;54.60;;;13.70;99.90;;;;;;5053969;28;20029;-69
2021/08/31 04:34:18;;;;;;;136.20;60.30;;;13.70;99.90;;;;;;5053418;28;20521;-70
2021/08/31 04:36:43;;;;;;;117.63;56.75;;;13.70;99.90;;;;;;5053933;28;20028;-70
2021/08/31 04:39:09;;;;;;;128.98;58.47;;;13.70;99.90;;;;;;5053938;28;20025;-69
2021/08/31 04:41:34;;;;;;;124.97;58.17;;;13.70;99.90;;;;;;5053932;28;20028;-69
2021/08/31 04:44:00;;;;;;;130.05;58.38;;;13.70;99.90;;;;;;5053274;28;20021;-69
2021/08/31 04:46:25;;;;;;;135.25;62.38;;;13.80;99.90;;;;;;5053561;28;20056;-70
2021/08/31 04:48:51;;;;;;;138.02;60.78;;;13.80;99.90;;;;;;5053521;28;20036;-69
2021/08/31 04:51:16;;;;;;;136.23;59.63;;;13.80;99.90;;;;;;5053786;28;20451;-69
2021/08/31 04:53:42;;;;;;;132.05;63.10;;;13.80;99.90;;;;;;5053740;28;20040;-69
2021/08/31 04:56:07;;;;;;;138.07;59.75;;;13.80;99.90;;;;;;5053389;28;20550;-70
2021/08/31 04:58:33;;;;;;;129.38;59.28;;;13.90;99.90;;;;;;5053456;28;20024;-69
2021/08/31 05:00:58;;;;;;;138.05;59.00;;;13.90;99.90;;;;;;5053688;28;20104;-70
2021/08/31 05:03:24;;;;;;;127.20;57.80;;;13.90;99.90;;;;;;5053156;28;20041;-69
2021/08/31 05:05:50;;;;;;;120.63;56.03;;;13.90;99.90;;;;;;5053327;28;20096;-70
2021/08/31 05:08:16;;;;;;;125.32;57.72;;;13.90;99.90;;;;;;5035270;28;20167;-69
2021/08/31 05:10:42;;;;;;;128.50;54.85;;;13.90;99.90;;;;;;5052177;28;20426;-69
2021/08/31 05:13:07;;;;;;;112.47;54.33;;;13.90;99.90;;;;;;5053314;28;20052;-70
2021/08/31 05:15:33;;;;;;;127.40;57.03;;;13.90;99.90;;;;;;5053505;28;20029;-69
2021/08/31 05:17:59;;;;;;;128.10;55.55;;;13.90;99.90;;;;;;5056672;28;20070;-69
2021/08/31 05:20:27;;;;;;;164.90;53.72;;;14.00;99.90;;;;;;5055585;28;20483;-69
2021/08/31 05:22:53;;;;;;;153.60;52.70;;;14.00;99.90;;;;;;5057401;28;20045;-69
2021/08/31 05:25:19;;;;;;;148.80;51.58;;;14.00;99.90;;;;;;5057361;28;20083;-70
2021/08/31 05:27:44;;;;;;;104.93;51.67;;;14.00;99.90;;;;;;5057248;28;20108;-69
2021/08/31 05:30:10;;;;;;;120.57;50.83;;;14.00;99.90;;;;;;5057176;28;20375;-69
2021/08/31 05:32:36;;;;;;;126.30;51.55;;;14.00;99.90;;;;;;5056639;28;20056;-69
2021/08/31 05:35:01;;;;;;;139.52;56.17;;;14.00;99.90;;;;;;5055083;28;20078;-70
2021/08/31 05:37:27;;;;;;;185.93;54.35;;;14.00;99.90;;;;;;5056529;28;20033;-69
2021/08/31 05:39:52;;;;;;;217.13;54.10;;;13.90;99.90;;;;;;5057001;28;20394;-69
2021/08/31 05:42:18;;;;;;;224.80;58.97;;;13.90;99.90;;;;;;5055480;28;20041;-69
2021/08/31 05:44:43;;;;;;;243.48;55.30;;;13.90;99.90;;;;;;5056902;28;20054;-69
2021/08/31 05:47:09;;;;;;;191.43;57.55;;;13.90;99.90;;;;;;5038433;28;20032;-69
2021/08/31 05:49:35;;;;;;;198.55;55.13;;;13.90;99.90;;;;;;5056893;28;20108;-69
2021/08/31 05:52:01;;;;;;;149.85;56.20;;;13.90;99.90;;;;;;5055355;28;20531;-70
2021/08/31 05:54:27;;;;;;;163.27;52.88;;;13.90;99.90;;;;;;5056128;28;20025;-69
2021/08/31 05:56:53;;;;;;;132.25;51.00;;;14.00;99.90;;;;;;5056440;28;20374;-69
2021/08/31 05:59:18;;;;;;;127.13;51.55;;;14.00;99.90;;;;;;5056408;28;20068;-69
2021/08/31 06:01:44;;;;;;;118.63;51.50;;;14.00;99.90;;;;;;5056516;28;20114;-69
2021/08/31 06:04:11;;;;;;;145.88;51.05;;;14.10;99.90;;;;;;5045359;28;20025;-69
2021/08/31 06:06:37;;;;;;;136.35;50.75;;;14.10;99.90;;;;;;5042133;28;20037;-69
2021/08/31 06:09:04;;;;;;;125.07;49.22;;;14.10;99.90;;;;;;5026109;28;20108;-69
2021/08/31 06:11:32;;;;;;;105.80;47.83;;;14.10;99.90;;;;;;5042743;28;21172;-69
2021/08/31 06:13:58;;;;;;;99.63;44.92;;;14.20;99.90;;;;;;5045279;28;20028;-69
2021/08/31 06:16:23;;;;;;;137.23;47.50;;;14.20;99.90;;;;;;5044589;28;20026;-69
2021/08/31 06:18:49;;;;;;;115.20;44.95;;;14.20;99.90;;;;;;5045844;28;20112;-69
2021/08/31 06:21:14;;;;;;;104.78;44.53;;;14.10;99.90;;;;;;5039080;28;20096;-69
2021/08/31 06:23:40;;;;;;;109.63;44.78;;;14.10;99.90;;;;;;5055092;28;20063;-69
2021/08/31 06:26:05;;;;;;;109.07;43.92;;;14.20;99.90;;;;;;5047131;28;20120;-69
2021/08/31 06:28:32;;;;;;;108.65;42.58;;;14.20;99.90;;;;;;5046606;28;20032;-69
2021/08/31 06:30:58;;;;;;;99.25;41.22;;;14.30;99.90;;;;;;5054663;28;20521;-69
2021/08/31 06:33:23;;;;;;;86.00;40.70;;;14.30;99.90;;;;;;5039760;28;20025;-69
2021/08/31 06:35:49;;;;;;;83.15;37.35;;;14.40;99.90;;;;;;5042234;28;20034;-70
2021/08/31 06:38:15;;;;;;;76.63;34.10;;;14.40;99.90;;;;;;5049525;28;20059;-70
2021/08/31 06:40:40;;;;;;;76.10;36.97;;;14.60;99.90;;;;;;5045034;28;20017;-69
2021/08/31 06:43:06;;;;;;;77.72;34.00;;;14.70;99.90;;;;;;5044311;28;20390;-69
2021/08/31 06:45:32;;;;;;;63.10;32.47;;;14.70;99.90;;;;;;5042960;28;20467;-69
2021/08/31 06:47:57;;;;;;;64.47;33.75;;;14.70;99.90;;;;;;5049510;28;20052;-70
2021/08/31 06:50:23;;;;;;;66.75;32.30;;;14.80;99.90;;;;;;5055310;28;20033;-69
2021/08/31 06:52:48;;;;;;;70.05;32.72;;;14.80;99.90;;;;;;5055182;28;20036;-69
2021/08/31 06:55:15;;;;;;;68.75;31.92;;;14.80;99.90;;;;;;5049451;28;20516;-69
2021/08/31 06:57:41;;;;;;;66.25;33.95;;;14.90;99.90;;;;;;5055779;28;20021;-69
2021/08/31 07:00:09;;;;;;;72.68;34.10;;;14.90;99.90;;;;;;5050162;28;20019;-69
2021/08/31 07:02:34;;;;;;;66.63;32.53;;;15.00;99.90;;;;;;5069315;28;20041;-69
2021/08/31 07:05:00;;;;;;;68.13;35.03;;;15.00;99.90;;;;;;5053277;28;20086;-71
2021/08/31 07:07:26;;;;;;;70.82;35.72;;;15.00;99.90;;;;;;5049454;28;21063;-70
2021/08/31 07:09:52;;;;;;;67.38;35.72;;;15.00;99.90;;;;;;5051299;28;20071;-70
2021/08/31 07:12:17;;;;;;;67.90;35.50;;;15.10;99.90;;;;;;5054180;28;20482;-70
2021/08/31 07:14:43;;;;;;;62.47;34.35;;;15.20;99.90;;;;;;5065165;28;20025;-70
2021/08/31 07:17:08;;;;;;;68.60;34.83;;;15.30;99.90;;;;;;5054233;28;20029;-70
2021/08/31 07:19:34;;;;;;;61.40;33.17;;;15.40;99.90;;;;;;5052934;28;20420;-69
2021/08/31 07:21:59;;;;;;;57.55;31.10;;;15.50;99.90;;;;;;5048431;28;20025;-70
2021/08/31 07:24:25;;;;;;;54.20;31.73;;;15.60;99.90;;;;;;5033483;28;20057;-69
2021/08/31 07:26:51;;;;;;;61.28;32.67;;;15.60;99.90;;;;;;5052261;28;20517;-69
2021/08/31 07:29:16;;;;;;;56.33;32.92;;;15.60;99.90;;;;;;5050343;28;20026;-70
2021/08/31 07:31:42;;;;;;;60.25;32.35;;;15.60;99.90;;;;;;5052756;28;20032;-70
2021/08/31 07:34:08;;;;;;;57.30;31.40;;;15.60;99.90;;;;;;5053318;28;20379;-69
2021/08/31 07:36:33;;;;;;;56.40;31.95;;;15.60;99.90;;;;;;5033019;28;20032;-69
2021/08/31 07:38:59;;;;;;;53.88;31.10;;;15.60;99.90;;;;;;5033615;28;20075;-69
2021/08/31 07:41:25;;;;;;;57.63;32.95;;;15.70;99.90;;;;;;5045730;28;20036;-69
2021/08/31 07:43:52;;;;;;;54.10;31.08;;;15.80;99.90;;;;;;5051941;28;20021;-69
2021/08/31 07:46:18;;;;;;;53.13;30.17;;;16.10;99.90;;;;;;5051784;28;20467;-69
2021/08/31 07:48:44;;;;;;;48.97;28.88;;;16.20;99.90;;;;;;5052630;28;20025;-70
2021/08/31 07:51:09;;;;;;;48.58;29.25;;;16.40;99.90;;;;;;5052372;28;20355;-70
2021/08/31 07:53:35;;;;;;;44.17;27.63;;;16.50;99.90;;;;;;5067975;28;20108;-70
2021/08/31 07:56:01;;;;;;;45.67;27.73;;;16.50;99.90;;;;;;5064781;28;20478;-69
2021/08/31 07:58:26;;;;;;;47.08;28.50;;;16.40;99.90;;;;;;5052123;28;20021;-69
2021/08/31 08:00:52;;;;;;;55.42;30.48;;;16.40;99.90;;;;;;5057704;28;20031;-70
2021/08/31 08:03:18;;;;;;;50.13;29.63;;;16.50;99.90;;;;;;5068699;28;20072;-70
2021/08/31 08:05:43;;;;;;;51.60;30.23;;;16.40;99.90;;;;;;5042644;28;20113;-70
2021/08/31 08:08:09;;;;;;;47.47;28.80;;;16.40;99.90;;;;;;5053252;28;20101;-69
2021/08/31 08:10:34;;;;;;;47.08;27.92;;;16.30;99.90;;;;;;5053109;28;20029;-70
2021/08/31 08:13:00;;;;;;;48.40;28.23;;;16.40;99.90;;;;;;5052789;28;20068;-69
2021/08/31 08:15:25;;;;;;;51.35;29.30;;;16.50;99.90;;;;;;5070855;28;20355;-69
2021/08/31 08:17:51;;;;;;;47.20;27.85;;;16.50;99.90;;;;;;5065984;28;20029;-70
2021/08/31 08:20:17;;;;;;;43.53;27.75;;;16.60;99.90;;;;;;5052920;28;20170;-69
2021/08/31 08:22:44;;;;;;;45.85;25.90;;;16.50;99.90;;;;;;5050231;28;20036;-70
2021/08/31 08:25:10;;;;;;;43.22;26.65;;;16.60;99.90;;;;;;5053243;28;20027;-69
2021/08/31 08:27:36;;;;;;;41.58;26.50;;;16.70;99.90;;;;;;5052460;28;20103;-69
2021/08/31 08:30:03;;;;;;;44.63;25.77;;;16.80;99.90;;;;;;5047469;28;20502;-69
2021/08/31 08:32:28;;;;;;;41.47;25.75;;;16.70;99.90;;;;;;5051604;28;20029;-70
2021/08/31 08:34:54;;;;;;;39.40;25.48;;;16.70;99.90;;;;;;5052407;28;20517;-70
2021/08/31 08:37:19;;;;;;;40.38;24.92;;;16.70;99.90;;;;;;5051999;28;20029;-69
2021/08/31 08:39:45;;;;;;;45.47;26.45;;;16.70;99.90;;;;;;5053188;28;20029;-70
2021/08/31 08:42:12;;;;;;;41.47;25.15;;;16.70;99.90;;;;;;5051309;28;20021;-70
2021/08/31 08:44:38;;;;;;;43.35;26.35;;;16.60;99.90;;;;;;5045944;28;20116;-70
2021/08/31 08:47:04;;;;;;;42.53;24.60;;;16.50;99.90;;;;;;5044390;28;20104;-70
2021/08/31 08:49:29;;;;;;;35.92;22.83;;;16.60;99.90;;;;;;5042998;28;20029;-70
2021/08/31 08:51:57;;;;;;;45.25;25.02;;;16.70;99.90;;;;;;5053254;28;20033;-69
2021/08/31 08:54:24;;;;;;;33.28;22.30;;;16.80;99.90;;;;;;5050743;28;20170;-70
2021/08/31 08:56:51;;;;;;;36.25;22.40;;;16.80;99.90;;;;;;5029250;28;20022;-70
2021/08/31 08:59:17;;;;;;;35.60;22.40;;;16.80;99.90;;;;;;5049335;28;20488;-70
2021/08/31 09:01:47;;;;;;;36.60;21.65;;;16.80;99.90;;;;;;5056535;28;20053;-70
2021/08/31 09:04:16;;;;;;;40.03;23.33;;;16.80;99.90;;;;;;5056533;28;20102;-70
2021/08/31 09:06:41;;;;;;;37.80;21.60;;;16.90;99.90;;;;;;5056746;28;20017;-69
2021/08/31 09:09:08;;;;;;;30.98;20.67;;;16.90;99.90;;;;;;5054449;28;20474;-71
2021/08/31 09:11:38;;;;;;;36.35;22.02;;;17.10;99.90;;;;;;5055704;28;20028;-70
2021/08/31 09:14:27;;;;;;;35.17;22.08;;;17.00;99.90;;;;;;5054520;28;20017;-71
2021/08/31 09:16:59;;;;;;;34.65;21.00;;;17.10;99.90;;;;;;5059284;28;20120;-70
2021/08/31 09:19:30;;;;;;;42.10;22.40;;;16.90;99.90;;;;;;5049407;28;20097;-70
2021/08/31 09:22:17;;;;;;;33.35;21.13;;;17.00;99.90;;;;;;5057272;28;20108;-70
2021/08/31 09:25:10;;;;;;;35.35;21.45;;;17.20;99.90;;;;;;5050167;28;20491;-70
2021/08/31 09:27:39;;;;;;;29.35;20.48;;;17.30;99.90;;;;;;5054010;28;20037;-69
2021/08/31 09:30:26;;;;;;;33.72;21.65;;;17.60;99.90;;;;;;5042058;28;20498;-70
2021/08/31 09:33:10;;;;;;;34.65;20.67;;;17.80;99.90;;;;;;5053971;28;20124;-70
2021/08/31 09:35:40;;;;;;;33.78;20.08;;;18.50;99.90;;;;;;5054532;28;20032;-70
2021/08/31 09:38:09;;;;;;;27.52;18.92;;;19.20;99.90;;;;;;5054688;28;20025;-70
2021/08/31 09:40:40;;;;;;;25.73;17.15;;;19.60;99.90;;;;;;5044556;28;20020;-71
2021/08/31 09:43:12;;;;;;;26.15;19.30;;;19.70;99.90;;;;;;5051356;28;20036;-70
2021/08/31 09:45:41;;;;;;;35.28;19.85;;;19.60;99.90;;;;;;5053818;28;20063;-71
2021/08/31 09:48:09;;;;;;;30.90;20.67;;;19.40;99.90;;;;;;5047565;28;20059;-70
2021/08/31 09:50:39;;;;;;;29.15;19.02;;;19.00;99.90;;;;;;5054387;28;20048;-70
2021/08/31 09:53:08;;;;;;;26.27;17.50;;;19.40;99.90;;;;;;5053342;28;20103;-70
2021/08/31 09:55:34;;;;;;;23.48;15.93;;;20.50;99.90;;;;;;5054629;28;20025;-70
2021/08/31 09:58:09;;;;;;;21.27;14.32;;;21.00;99.90;;;;;;5055281;28;20108;-70
2021/08/31 10:00:34;;;;;;;22.02;14.60;;;21.40;99.90;;;;;;5047616;28;20031;-69
2021/08/31 10:03:00;;;;;;;20.33;13.80;;;21.90;99.90;;;;;;5050665;28;20100;-70
2021/08/31 10:05:27;;;;;;;17.50;12.73;;;22.70;99.90;;;;;;5055354;28;20471;-70
2021/08/31 10:07:54;;;;;;;21.08;12.90;;;22.70;99.90;;;;;;5053356;28;20021;-70
2021/08/31 10:10:21;;;;;;;16.67;13.13;;;23.90;99.90;;;;;;5045623;28;20078;-70
2021/08/31 10:12:50;;;;;;;19.02;13.10;;;24.10;99.90;;;;;;5052801;28;20367;-70
2021/08/31 10:15:16;;;;;;;16.17;12.63;;;23.40;99.90;;;;;;5050685;28;20045;-70
2021/08/31 10:17:46;;;;;;;15.90;12.65;;;22.70;99.90;;;;;;5046914;28;20029;-69
2021/08/31 10:20:13;;;;;;;19.95;14.38;;;22.10;99.90;;;;;;5053413;28;20528;-69
2021/08/31 10:22:41;;;;;;;20.55;14.85;;;21.20;99.90;;;;;;5054910;28;20095;-69
2021/08/31 10:25:08;;;;;;;20.75;14.68;;;20.80;99.90;;;;;;5053967;28;20025;-69
2021/08/31 10:27:39;;;;;;;18.55;14.52;;;20.80;99.90;;;;;;5053742;28;20094;-69
2021/08/31 10:33:01;;;;;;;15.88;11.52;;;21.70;99.90;;;;;;5068284;28;20457;-70
2021/08/31 10:38:09;;;;;;;16.63;12.15;;;23.70;99.90;;;;;;5059389;28;20771;-69
2021/08/31 10:40:39;;;;;;;16.98;12.90;;;24.30;99.90;;;;;;5049976;28;20364;-69
2021/08/31 10:43:07;;;;;;;16.73;12.57;;;24.40;99.90;;;;;;5050366;28;20021;-69
2021/08/31 10:45:35;;;;;;;13.35;9.20;;;24.80;99.90;;;;;;5049988;28;20079;-69
2021/08/31 10:51:17;;;;;;;10.80;7.78;;;25.60;99.90;;;;;;5110895;27;20295;-69
2021/08/31 10:53:46;;;;;;;13.93;7.95;;;25.70;99.90;;;;;;5097908;28;20032;-69
2021/08/31 10:56:27;;;;;;;12.02;8.82;;;25.60;99.90;;;;;;5090483;28;20024;-69
2021/08/31 10:59:01;;;;;;;9.75;8.05;;;25.10;99.90;;;;;;5100658;28;20477;-69
2021/08/31 11:01:38;;;;;;;12.20;9.30;;;24.70;99.90;;;;;;5109431;28;20027;-69
2021/08/31 11:04:26;;;;;;;11.40;8.38;;;24.20;99.90;;;;;;5110911;28;20107;-69
2021/08/31 11:07:01;;;;;;;12.73;9.68;;;24.10;99.90;;;;;;5109009;28;20353;-69
2021/08/31 11:09:27;;;;;;;12.95;9.50;;;23.70;99.90;;;;;;5109954;28;20070;-69
2021/08/31 11:14:53;;;;;;;13.60;10.88;;;22.20;99.90;;;;;;5069775;28;20369;-67
2021/08/31 11:17:40;;;;;;;12.75;10.43;;;22.30;99.90;;;;;;5051628;28;20446;-68
2021/08/31 11:20:11;;;;;;;14.20;9.50;;;22.10;99.90;;;;;;5052332;28;20067;-70
2021/08/31 11:22:37;;;;;;;13.23;9.30;;;22.40;99.90;;;;;;5043509;28;20114;-70
2021/08/31 11:25:03;;;;;;;13.18;9.68;;;22.10;99.90;;;;;;5042943;28;20463;-71
2021/08/31 11:27:29;;;;;;;15.88;9.43;;;22.00;99.90;;;;;;5030130;28;20032;-70
2021/08/31 11:29:56;;;;;;;13.13;9.52;;;22.50;99.90;;;;;;5048883;28;20112;-70
2021/08/31 11:32:22;;;;;;;10.00;7.80;;;22.30;99.90;;;;;;5046518;28;20025;-71
2021/08/31 11:35:04;;;;;;;10.80;8.55;;;22.00;99.90;;;;;;5047042;28;20033;-70
2021/08/31 11:37:29;;;;;;;11.13;8.73;;;21.80;99.90;;;;;;5046891;28;20029;-70
2021/08/31 11:39:58;;;;;;;14.43;9.43;;;22.10;99.90;;;;;;5056342;28;20375;-71
2021/08/31 11:42:24;;;;;;;9.52;8.10;;;22.60;99.90;;;;;;5039041;28;20113;-70
2021/08/31 11:44:58;;;;;;;10.70;8.48;;;22.70;99.90;;;;;;5031394;28;20026;-71
2021/08/31 11:47:24;;;;;;;11.20;7.55;;;22.30;99.90;;;;;;5039093;28;20018;-70
2021/08/31 11:49:49;;;;;;;11.80;8.50;;;22.80;99.90;;;;;;5047586;28;20428;-70
2021/08/31 11:52:17;;;;;;;12.13;8.38;;;22.20;99.90;;;;;;5044833;28;20478;-70
2021/08/31 11:54:45;;;;;;;9.55;7.28;;;21.80;99.90;;;;;;5044480;28;20114;-70
2021/08/31 11:57:13;;;;;;;12.38;7.47;;;21.90;99.90;;;;;;5044434;28;20021;-71
2021/08/31 11:59:44;;;;;;;9.07;6.07;;;22.10;99.90;;;;;;5048276;28;20021;-70
2021/08/31 12:07:42;;;;;;;11.27;6.90;;;22.80;99.90;;;;;;5099390;27;20324;-70
2021/08/31 12:10:18;;;;;;;10.30;7.40;;;22.90;99.90;;;;;;5090065;28;20024;-70
2021/08/31 12:12:45;;;;;;;12.45;6.93;;;23.00;99.90;;;;;;5088833;28;20440;-70
2021/08/31 12:15:11;;;;;;;12.32;7.15;;;23.00;99.90;;;;;;5089138;28;20029;-70
2021/08/31 12:17:45;;;;;;;7.75;6.38;;;23.30;99.90;;;;;;5089473;28;20082;-70
2021/08/31 12:20:18;;;;;;;7.55;5.95;;;23.40;99.90;;;;;;5090362;28;20025;-69
2021/08/31 12:22:44;;;;;;;;;;;23.00;99.90;;;;;;5089314;28;20032;-70
2021/08/31 12:25:12;;;;;;;10.05;6.32;;;22.90;99.90;;;;;;5090327;28;19947;-70
2021/08/31 12:27:40;;;;;;;6.65;5.78;;;22.50;99.90;;;;;;5088180;28;20085;-70
2021/08/31 12:30:06;;;;;;;8.55;5.57;;;22.40;99.90;;;;;;5089608;28;20048;-70
2021/08/31 12:32:32;;;;;;;9.90;6.07;;;22.40;99.90;;;;;;5089502;28;20020;-70
2021/08/31 12:35:27;;;;;;;8.07;6.18;;;23.00;99.90;;;;;;5089804;28;20035;-69
2021/08/31 12:38:17;;;;;;;7.32;5.65;;;23.10;99.90;;;;;;5089220;28;20500;-70
2021/08/31 12:41:06;;;;;;;6.68;6.00;;;23.00;99.90;;;;;;5075186;28;20031;-70
2021/08/31 12:43:46;;;;;;;7.75;5.97;;;22.70;99.90;;;;;;5082315;28;20032;-70
2021/08/31 12:46:21;;;;;;;8.32;6.20;;;22.20;99.90;;;;;;5085784;28;20025;-70